Latest Coastal Weather Observations for Port Lincoln Airport

IDS60701

Issued at 12:51 pm CDT Friday 6 March 2015 (issued every 10 minutes, with the page automatically refreshed every 10 minutes)

About coastal observations | Map of coastal stations | Coastal observations for SA | Marine services | Other Formats
Station Details ID: 018192 Name: PORT LINCOLN AWS Lat: -34.60 Lon: 135.88 Height: 8.5 m
Data from the previous 72 hours. | See also: Recent months at Port Lincoln Airport
Date/Time
CDT
Temp

°C
Wind Pressure Rain
since 9am
mm
Weather Cloud Vis
km
Sea
Height
m
Swell
Dir
 
Speed
knots
Gust
knots
hPa Trend Height
m
Period
s
Dir
06/12:30pm 20.6 S 13 16 1020.3 - 0.0 - Partly cloudy 10 - - - -
06/12:00pm 20.1 S 13 17 1020.6 - 0.0 - Mostly cloudy 10 - - - -
06/11:30am 20.2 S 13 16 1020.8 - 0.0 - Partly cloudy 10 - - - -
06/11:00am 20.0 S 15 18 1021.0 - 0.0 - Partly cloudy 10 - - - -
06/10:30am 19.4 S 15 18 1020.9 - 0.0 - Partly cloudy 10 - - - -
06/10:00am 18.8 S 12 16 1020.8 - 0.0 - Partly cloudy 10 - - - -
06/09:30am 17.7 SSW 10 14 1021.1 - 0.0 - Partly cloudy 10 - - - -
06/09:00am 16.6 SW 9 12 1021.1 - 0.0 - Partly cloudy 10 - - - -
06/08:30am 15.0 WSW 8 10 1021.0 - 0.0 - - 10 - - - -
06/08:00am 12.4 WSW 7 8 1020.9 - 0.0 - - 10 - - - -
06/07:30am 11.2 W 7 8 1020.8 - 0.0 - - 10 - - - -
06/07:00am 11.3 W 7 8 1020.7 - 0.0 - Partly cloudy 10 - - - -
06/06:30am 11.3 WSW 7 8 1020.7 - 0.0 - - 10 - - - -
06/06:00am 11.4 W 7 8 1020.8 - 0.0 - Mostly clear 10 - - - -
06/05:30am 11.4 W 7 8 1020.9 - 0.0 - Partly cloudy 10 - - - -
06/05:00am 12.1 W 6 7 1021.0 - 0.0 - Partly cloudy 10 - - - -
06/04:30am 13.0 W 7 8 1021.4 - 0.0 - Cloudy 10 - - - -
06/04:00am 12.0 W 7 8 1021.6 - 0.0 - Cloudy 10 - - - -
06/03:30am 11.3 W 8 9 1021.7 - 0.0 - Partly cloudy 10 - - - -
06/03:00am 11.7 WSW 7 8 1021.9 - 0.0 - Partly cloudy 10 - - - -
06/02:30am 11.5 W 7 8 1022.3 - 0.0 - Partly cloudy 10 - - - -
06/02:00am 11.9 WSW 7 9 1022.6 - 0.0 - - 10 - - - -
06/01:30am 12.4 WSW 8 9 1023.0 - 0.0 - - 10 - - - -
06/01:00am 12.6 WSW 8 9 1023.1 - 0.0 - Partly cloudy 10 - - - -
06/12:30am 13.0 WSW 8 9 1023.2 - 0.0 - Partly cloudy 10 - - - -
06/12:00am 12.7 SW 7 9 1023.3 - 0.0 - - 10 - - - -
 
Date/Time
CDT
Temp

°C
Wind Pressure Rain
since 9am
mm
Weather Cloud Vis
km
Sea
Height
m
Swell
Dir
 
Speed
knots
Gust
knots
hPa Trend Height
m
Period
s
Dir
05/11:30pm 12.8 WSW 7 8 1023.7 - 0.0 - Partly cloudy 10 - - - -
05/11:00pm 13.3 WSW 8 9 1024.1 - 0.0 - Partly cloudy 10 - - - -
05/10:30pm 13.4 SW 7 9 1024.3 - 0.0 - Partly cloudy 10 - - - -
05/10:00pm 13.3 WSW 7 9 1024.3 - 0.0 - Partly cloudy 10 - - - -
05/09:30pm 14.3 SW 9 11 1024.0 - 0.0 - - 10 - - - -
05/09:00pm 14.7 SSW 9 12 1023.7 - 0.0 - - 10 - - - -
05/08:30pm 15.2 SSW 12 16 1023.7 - 0.0 - - 10 - - - -
05/08:00pm 15.6 SSW 13 16 1023.6 - 0.0 - - 10 - - - -
05/07:30pm 16.4 S 15 18 1023.3 - 0.0 - - 10 - - - -
05/07:00pm 17.1 S 15 18 1023.1 - 0.0 - - 10 - - - -
05/06:30pm 18.0 S 15 19 1023.0 - 0.0 - - 10 - - - -
05/06:00pm 19.1 S 15 19 1022.7 - 0.0 - - 10 - - - -
05/05:30pm 19.5 SSE 13 16 1022.5 - 0.0 - - 10 - - - -
05/05:00pm 18.8 SE 11 16 1022.4 - 0.0 - - 10 - - - -
05/04:30pm 19.8 SE 13 17 1022.6 - 0.0 - - 10 - - - -
05/04:00pm 19.6 SE 12 16 1023.0 - 0.0 - - 10 - - - -
05/03:30pm 20.2 SE 12 17 1023.4 - 0.0 - - 10 - - - -
05/03:00pm 19.4 SE 12 18 1023.8 - 0.0 - - 10 - - - -
05/02:30pm 19.7 SE 11 17 1023.8 - 0.0 - - 10 - - - -
05/02:00pm 18.7 SE 11 17 1024.1 - 0.0 - - 10 - - - -
05/01:30pm 20.2 SE 13 20 1024.4 - 0.0 - Partly cloudy 10 - - - -
05/01:00pm 18.9 SE 13 18 1024.7 - 0.0 - Partly cloudy 10 - - - -
05/12:30pm 20.0 SE 14 19 1024.8 - 0.0 - Partly cloudy 10 - - - -
05/12:00pm 20.3 SE 15 19 1024.8 - 0.0 - Mostly cloudy 10 - - - -
05/11:30am 19.8 SE 16 21 1024.8 - 0.0 - Partly cloudy 10 - - - -
05/11:00am 19.2 SSE 14 19 1025.0 - 0.0 - Partly cloudy 10 - - - -
05/10:30am 18.5 S 16 20 1024.7 - 0.0 - Cloudy 10 - - - -
05/10:00am 17.9 SSE 13 18 1024.8 - 0.0 - Cloudy 10 - - - -
05/09:30am 18.0 S 15 18 1024.1 - 0.0 - Cloudy 10 - - - -
05/09:00am 17.5 SSE 15 19 1024.0 - 0.0 - Mostly cloudy 10 - - - -
05/08:30am 17.0 SSE 16 20 1023.7 - 0.0 - Partly cloudy 10 - - - -
05/08:00am 16.6 SSE 15 20 1023.0 - 0.0 - Partly cloudy 10 - - - -
05/07:30am 16.8 SSE 14 18 1023.0 - 0.0 - Cloudy 10 - - - -
05/07:00am 16.3 SSE 17 23 1022.8 - 0.0 - Partly cloudy 10 - - - -
05/06:30am 16.6 S 18 23 1022.4 - 0.0 - Cloudy 10 - - - -
05/06:00am 16.8 SSE 17 22 1022.1 - 0.0 - Cloudy 10 - - - -
05/05:30am 16.7 SSE 18 23 1021.9 - 0.0 - Partly cloudy 10 - - - -
05/05:00am 17.1 S 16 22 1021.8 - 0.0 - Partly cloudy 10 - - - -
05/04:30am 16.9 S 18 23 1021.6 - 0.0 - Partly cloudy 10 - - - -
05/04:00am 17.0 SSW 13 17 1021.3 - 0.0 - Partly cloudy 10 - - - -
05/03:30am 17.0 SSW 16 22 1021.3 - 0.0 - Partly cloudy 10 - - - -
05/03:00am 17.4 S 18 23 1021.3 - 0.0 - Cloudy 10 - - - -
05/02:30am 17.1 SSW 13 23 1021.5 - 0.0 - Partly cloudy 10 - - - -
05/02:00am 17.1 SSW 11 14 1021.7 - 0.0 - Partly cloudy 10 - - - -
05/01:30am 16.5 SSW 11 14 1021.6 - 0.0 - Partly cloudy 10 - - - -
05/01:00am 16.8 SW 13 22 1021.7 - 0.0 - Partly cloudy 10 - - - -
05/12:30am 16.7 WSW 11 15 1021.4 - 0.0 - Partly cloudy 10 - - - -
05/12:00am 16.7 WSW 11 15 1021.3 - 0.0 - Cloudy 10 - - - -
 
Date/Time
CDT
Temp

°C
Wind Pressure Rain
since 9am
mm
Weather Cloud Vis
km
Sea
Height
m
Swell
Dir
 
Speed
knots
Gust
knots
hPa Trend Height
m
Period
s
Dir
04/11:30pm 16.6 W 11 13 1020.9 - 0.0 - Partly cloudy 10 - - - -
04/11:00pm 16.5 W 9 11 1020.9 - 0.0 - - 10 - - - -
04/10:30pm 17.1 WSW 8 11 1021.0 - 0.0 - Cloudy 10 - - - -
04/10:00pm 17.6 SW 11 18 1020.9 - 0.0 - Partly cloudy 10 - - - -
04/09:30pm 18.8 WSW 12 17 1020.4 - 0.0 - Cloudy 10 - - - -
04/09:00pm 18.7 WSW 11 15 1020.1 - 0.0 - Mostly cloudy 10 - - - -
04/08:30pm 18.9 WSW 13 20 1020.0 - 0.0 - Cloudy 10 - - - -
04/08:00pm 18.9 WSW 16 22 1019.5 - 0.0 - Cloudy 10 - - - -
04/07:50pm 19.0 WSW 16 26 1019.3 - 0.0 - Cloudy 10 - - - -
04/07:30pm 19.4 WSW 17 23 1019.1 - 0.0 - Cloudy 10 - - - -
04/07:00pm 19.7 WSW 17 22 1019.0 - 0.0 - Cloudy 10 - - - -
04/06:30pm 20.3 WSW 16 21 1018.8 - 0.0 - Cloudy 10 - - - -
04/06:00pm 20.4 WSW 16 22 1018.8 - 0.0 - Mostly cloudy 10 - - - -
04/05:30pm 21.5 WSW 17 22 1018.4 - 0.0 - Partly cloudy 10 - - - -
04/05:04pm 22.4 W 18 28 1018.4 - 0.0 - Partly cloudy 10 - - - -
04/05:00pm 22.8 WSW 16 22 1018.3 - 0.0 - Partly cloudy 10 - - - -
04/04:30pm 22.7 WSW 16 22 1018.3 - 0.0 - Partly cloudy 10 - - - -
04/04:00pm 22.6 WSW 13 20 1018.5 - 0.0 - Cloudy 10 - - - -
04/03:30pm 22.3 SW 18 24 1018.8 - 0.0 - Partly cloudy 10 - - - -
04/03:00pm 23.1 SW 14 20 1018.9 - 0.0 - Partly cloudy 10 - - - -
04/02:30pm 23.4 SW 13 20 1019.2 - 0.0 - Partly cloudy 10 - - - -
04/02:00pm 22.3 WSW 11 17 1019.5 - 0.0 - Partly cloudy 10 - - - -
04/01:30pm 22.1 WSW 14 19 1019.7 - 0.0 - Cloudy 10 - - - -
04/01:00pm 21.8 SW 13 20 1019.7 - 0.0 - Cloudy 10 - - - -
04/12:30pm 22.6 SW 12 16 1020.0 - 0.0 - Partly cloudy 10 - - - -
04/12:00pm 21.4 SW 12 19 1020.1 - 0.0 - Partly cloudy 10 - - - -
04/11:30am 21.5 W 9 15 1020.2 - 0.0 - Partly cloudy 10 - - - -
04/11:00am 21.3 WSW 9 14 1020.3 - 0.0 - Partly cloudy 10 - - - -
04/10:30am 20.5 WSW 9 13 1020.2 - 0.0 - - 10 - - - -
04/10:00am 19.2 SSW 11 13 1020.5 - 0.0 - Partly cloudy 10 - - - -
04/09:30am 18.0 WSW 10 14 1020.7 - 0.0 - Cloudy 10 - - - -
04/09:00am 17.5 SW 9 13 1020.4 - 0.0 - Cloudy 10 - - - -
04/08:30am 16.7 SW 7 10 1020.2 - 0.0 - Cloudy 10 - - - -
04/08:00am 15.8 WSW 6 9 1019.9 - 0.0 - Cloudy 10 - - - -
04/07:30am 13.1 WNW 8 9 1019.6 - 0.0 - Partly cloudy 10 - - - -
04/07:00am 11.7 WNW 7 8 1019.5 - 0.0 - Partly cloudy 10 - - - -
04/06:30am 13.0 WSW 7 8 1019.2 - 0.0 - - 10 - - - -
04/06:00am 13.1 WSW 7 8 1019.1 - 0.0 - - 10 - - - -
04/05:30am 13.6 WSW 7 9 1019.0 - 0.0 - - 10 - - - -
04/05:00am 13.6 WSW 5 7 1018.9 - 0.0 - - 10 - - - -
04/04:30am 13.8 SW 5 7 1018.9 - 0.0 - - 10 - - - -
04/04:00am 14.2 SW 3 4 1018.8 - 0.0 - - 10 - - - -
04/03:30am 14.7 SW 6 7 1019.0 - 0.0 - - 10 - - - -
04/03:00am 15.4 SW 6 8 1019.3 - 0.0 - Partly cloudy 10 - - - -
04/02:30am 15.5 SW 5 7 1019.6 - 0.0 - Partly cloudy 10 - - - -
04/02:00am 15.9 SSW 5 7 1019.8 - 0.0 - Partly cloudy 10 - - - -
04/01:30am 16.3 SW 7 9 1020.2 - 0.0 - Partly cloudy 10 - - - -
04/01:00am 15.5 SSW 6 8 1020.0 - 0.0 - - 10 - - - -
04/12:30am 15.2 SW 5 6 1020.3 - 0.0 - - 10 - - - -
04/12:00am 15.1 SW 5 7 1020.4 - 0.0 - Partly cloudy 10 - - - -
 
Date/Time
CDT
Temp

°C
Wind Pressure Rain
since 9am
mm
Weather Cloud Vis
km
Sea
Height
m
Swell
Dir
 
Speed
knots
Gust
knots
hPa Trend Height
m
Period
s
Dir
03/11:30pm 14.9 WSW 6 7 1020.5 - 0.0 - - 10 - - - -
03/11:00pm 15.4 SW 6 8 1020.5 - 0.0 - - 10 - - - -
03/10:30pm 15.8 SW 7 9 1020.6 - 0.0 - - 10 - - - -
03/10:00pm 16.5 SSW 9 12 1020.4 - 0.0 - - 10 - - - -
03/09:30pm 16.9 SSW 10 12 1020.0 - 0.0 - - 10 - - - -
03/09:00pm 17.3 SSW 10 13 1019.8 - 0.0 - Mostly cloudy 10 - - - -
03/08:30pm 17.8 SSW 12 16 1019.5 - 0.0 - - 10 - - - -
03/08:00pm 18.1 S 14 19 1019.0 - 0.0 - - 10 - - - -
03/07:30pm 18.7 S 15 17 1018.7 - 0.0 - - 10 - - - -
03/07:00pm 20.0 S 15 18 1018.4 - 0.0 - - 10 - - - -
03/06:30pm 20.4 S 14 18 1018.4 - 0.0 - - 10 - - - -
03/06:00pm 21.2 S 15 19 1018.3 - 0.0 - Partly cloudy 10 - - - -
03/05:30pm 21.9 S 15 17 1018.1 - 0.0 - - 10 - - - -
03/05:00pm 22.2 SE 13 16 1018.0 - 0.0 - - 10 - - - -
03/04:30pm 21.7 SE 13 16 1018.0 - 0.0 - - 10 - - - -
03/04:00pm 21.8 SE 13 16 1018.3 - 0.0 - - 10 - - - -
03/03:30pm 21.4 SE 13 16 1018.7 - 0.0 - - 10 - - - -
03/03:00pm 22.0 SE 13 18 1018.6 - 0.0 - - 10 - - - -
03/02:30pm 21.4 SE 14 19 1018.8 - 0.0 - - 10 - - - -
03/02:00pm 20.6 SE 13 17 1019.0 - 0.0 - - 10 - - - -
03/01:30pm 21.6 SE 13 16 1019.1 - 0.0 - - 10 - - - -
03/01:00pm 21.9 SE 13 19 1019.4 - 0.0 - - 10 - - - -

Other Formats:

Comma delimited format used in spreadsheet applications
http://www.bom.gov.au/fwo/IDS60701/IDS60701.95661.axf

JavaScript Object Notation format (JSON) in row-major order
http://www.bom.gov.au/fwo/IDS60701/IDS60701.95661.json